sensor_id;sensor_type;location;lat;lon;timestamp;P1;durP1;ratioP1;P2;durP2;ratioP2
73104;SDS011;61296;50.526;30.792;2022-12-29T00:08:04;24.95;;;10.35;;
73104;SDS011;61296;50.526;30.792;2022-12-29T00:23:23;21.48;;;9.77;;
73104;SDS011;61296;50.526;30.792;2022-12-29T00:39:05;25.00;;;10.55;;
73104;SDS011;61296;50.526;30.792;2022-12-29T00:54:48;20.40;;;9.90;;
73104;SDS011;61296;50.526;30.792;2022-12-29T01:10:07;15.90;;;8.30;;
73104;SDS011;61296;50.526;30.792;2022-12-29T01:25:29;16.35;;;8.10;;
73104;SDS011;61296;50.526;30.792;2022-12-29T01:40:49;12.32;;;6.95;;
73104;SDS011;61296;50.526;30.792;2022-12-29T01:56:09;15.50;;;6.22;;
73104;SDS011;61296;50.526;30.792;2022-12-29T02:11:31;15.57;;;6.40;;
73104;SDS011;61296;50.526;30.792;2022-12-29T02:58:21;13.88;;;5.72;;
73104;SDS011;61296;50.526;30.792;2022-12-29T03:13:43;8.52;;;4.90;;
73104;SDS011;61296;50.526;30.792;2022-12-29T03:29:27;11.95;;;5.70;;
73104;SDS011;61296;50.526;30.792;2022-12-29T03:44:52;10.60;;;5.63;;
73104;SDS011;61296;50.526;30.792;2022-12-29T04:00:13;10.02;;;5.72;;
73104;SDS011;61296;50.526;30.792;2022-12-29T04:15:35;11.88;;;5.85;;
73104;SDS011;61296;50.526;30.792;2022-12-29T04:30:55;10.95;;;6.28;;
73104;SDS011;61296;50.526;30.792;2022-12-29T04:46:21;10.80;;;6.20;;
73104;SDS011;61296;50.526;30.792;2022-12-29T05:01:56;13.27;;;6.18;;
73104;SDS011;61296;50.526;30.792;2022-12-29T05:17:16;12.43;;;6.30;;
73104;SDS011;61296;50.526;30.792;2022-12-29T09:57:04;24.67;;;10.88;;
73104;SDS011;61296;50.526;30.792;2022-12-29T10:28:01;23.58;;;10.80;;
73104;SDS011;61296;50.526;30.792;2022-12-29T10:43:26;22.77;;;11.27;;
73104;SDS011;61296;50.526;30.792;2022-12-29T10:58:47;31.13;;;11.88;;
73104;SDS011;61296;50.526;30.792;2022-12-29T11:14:13;23.92;;;10.25;;
73104;SDS011;61296;50.526;30.792;2022-12-29T11:29:40;24.67;;;11.82;;
73104;SDS011;61296;50.526;30.792;2022-12-29T11:45:05;30.67;;;12.45;;
73104;SDS011;61296;50.526;30.792;2022-12-29T12:00:34;22.45;;;11.60;;
73104;SDS011;61296;50.526;30.792;2022-12-29T12:16:04;18.25;;;8.95;;
73104;SDS011;61296;50.526;30.792;2022-12-29T13:02:51;23.00;;;10.90;;
73104;SDS011;61296;50.526;30.792;2022-12-29T13:49:20;25.77;;;11.38;;
73104;SDS011;61296;50.526;30.792;2022-12-29T14:04:54;25.25;;;12.25;;
73104;SDS011;61296;50.526;30.792;2022-12-29T14:20:22;23.70;;;11.63;;
73104;SDS011;61296;50.526;30.792;2022-12-29T14:35:43;23.65;;;12.27;;
73104;SDS011;61296;50.526;30.792;2022-12-29T14:51:18;21.87;;;11.13;;
73104;SDS011;61296;50.526;30.792;2022-12-29T15:06:47;24.20;;;11.07;;
73104;SDS011;61296;50.526;30.792;2022-12-29T15:22:08;22.67;;;11.48;;
73104;SDS011;61296;50.526;30.792;2022-12-29T15:37:37;22.63;;;11.50;;
73104;SDS011;61296;50.526;30.792;2022-12-29T15:52:57;26.88;;;11.95;;
73104;SDS011;61296;50.526;30.792;2022-12-29T16:08:29;28.20;;;11.93;;
73104;SDS011;61296;50.526;30.792;2022-12-29T16:23:57;30.80;;;13.27;;
73104;SDS011;61296;50.526;30.792;2022-12-29T16:54:54;36.17;;;16.25;;
73104;SDS011;61296;50.526;30.792;2022-12-29T17:25:37;35.92;;;15.65;;
73104;SDS011;61296;50.526;30.792;2022-12-29T17:40:57;31.27;;;14.70;;
73104;SDS011;61296;50.526;30.792;2022-12-29T17:56:18;36.15;;;15.18;;
73104;SDS011;61296;50.526;30.792;2022-12-29T18:11:39;37.88;;;16.80;;
73104;SDS011;61296;50.526;30.792;2022-12-29T18:27:01;34.95;;;16.63;;
73104;SDS011;61296;50.526;30.792;2022-12-29T18:42:29;39.85;;;17.35;;
73104;SDS011;61296;50.526;30.792;2022-12-29T18:57:49;37.33;;;16.15;;
73104;SDS011;61296;50.526;30.792;2022-12-29T19:13:15;36.15;;;16.10;;
73104;SDS011;61296;50.526;30.792;2022-12-29T19:28:37;30.90;;;14.57;;
73104;SDS011;61296;50.526;30.792;2022-12-29T19:43:57;34.85;;;15.57;;
73104;SDS011;61296;50.526;30.792;2022-12-29T19:59:16;32.97;;;14.98;;
73104;SDS011;61296;50.526;30.792;2022-12-29T20:14:35;31.48;;;14.63;;
73104;SDS011;61296;50.526;30.792;2022-12-29T20:29:55;31.73;;;14.45;;
73104;SDS011;61296;50.526;30.792;2022-12-29T20:45:15;31.00;;;15.20;;
73104;SDS011;61296;50.526;30.792;2022-12-29T21:00:34;29.40;;;13.40;;
73104;SDS011;61296;50.526;30.792;2022-12-29T21:15:59;33.08;;;13.95;;
73104;SDS011;61296;50.526;30.792;2022-12-29T21:31:28;29.45;;;14.15;;
73104;SDS011;61296;50.526;30.792;2022-12-29T21:46:56;26.77;;;13.25;;
73104;SDS011;61296;50.526;30.792;2022-12-29T22:02:20;30.52;;;13.80;;
73104;SDS011;61296;50.526;30.792;2022-12-29T22:18:00;28.83;;;13.85;;
73104;SDS011;61296;50.526;30.792;2022-12-29T22:33:20;28.60;;;12.85;;
73104;SDS011;61296;50.526;30.792;2022-12-29T22:48:39;26.50;;;11.95;;
73104;SDS011;61296;50.526;30.792;2022-12-29T23:03:59;23.63;;;12.63;;
73104;SDS011;61296;50.526;30.792;2022-12-29T23:19:18;23.63;;;11.40;;
73104;SDS011;61296;50.526;30.792;2022-12-29T23:34:37;22.65;;;11.15;;
73104;SDS011;61296;50.526;30.792;2022-12-29T23:49:57;23.90;;;12.10;;
